Time;durP1;ratioP1;P1;durP2;ratioP2;P2;SDS_P1;SDS_P2;PMS_P1;PMS_P2;Temp;Humidity;BMP_temperature;BMP_pressure;BME280_temperature;BME280_humidity;BME280_pressure;Samples;Min_cycle;Max_cycle;Signal;HPM_P1;HPM_P2
2021/07/19 00:01:36;;;;;;;10.88;8.77;;;24.10;58.80;;;;;;5095976;28;20149;-83
2021/07/19 00:04:04;;;;;;;10.50;8.38;;;24.00;58.80;;;;;;5026637;28;20591;-85
2021/07/19 00:06:32;;;;;;;10.63;8.50;;;24.10;58.90;;;;;;5093640;28;20185;-85
2021/07/19 00:09:05;;;;;;;9.90;8.13;;;24.10;58.80;;;;;;5043208;28;20598;-83
2021/07/19 00:11:33;;;;;;;10.00;8.52;;;24.10;58.90;;;;;;5077953;27;20640;-83
2021/07/19 00:14:03;;;;;;;10.57;8.52;;;24.10;58.90;;;;;;5046737;28;20275;-82
2021/07/19 00:16:31;;;;;;;9.80;8.48;;;24.10;58.90;;;;;;5046760;28;20180;-84
2021/07/19 00:18:59;;;;;;;10.30;8.27;;;24.00;58.90;;;;;;5046856;28;20181;-83
2021/07/19 00:21:27;;;;;;;9.40;8.13;;;24.00;58.90;;;;;;5096890;28;20206;-82
2021/07/19 00:23:55;;;;;;;10.70;8.57;;;24.00;58.90;;;;;;5079537;28;20677;-84
2021/07/19 00:26:22;;;;;;;10.30;8.30;;;24.10;58.90;;;;;;5079909;28;20180;-85
2021/07/19 00:28:50;;;;;;;10.32;8.45;;;24.00;58.90;;;;;;5097065;28;20217;-85
2021/07/19 00:31:20;;;;;;;9.75;8.23;;;24.10;58.90;;;;;;5079493;28;20191;-82
2021/07/19 00:33:47;;;;;;;10.18;8.07;;;24.10;58.90;;;;;;5079918;28;20524;-82
2021/07/19 00:36:14;;;;;;;9.93;8.40;;;24.00;58.90;;;;;;5096798;27;20187;-84
2021/07/19 00:38:41;;;;;;;10.43;8.70;;;24.00;58.90;;;;;;5046238;28;20180;-82
2021/07/19 00:41:07;;;;;;;9.68;8.13;;;24.10;59.00;;;;;;5097075;28;20157;-83
2021/07/19 00:43:33;;;;;;;10.00;8.27;;;24.00;59.00;;;;;;5114290;28;20161;-84
2021/07/19 00:45:59;;;;;;;9.52;7.93;;;24.00;58.90;;;;;;5079910;28;20169;-82
2021/07/19 00:48:29;;;;;;;9.55;8.02;;;24.00;59.00;;;;;;5062409;28;20215;-82
2021/07/19 00:50:59;;;;;;;10.20;8.43;;;24.00;58.90;;;;;;5096556;27;20185;-82
2021/07/19 00:53:26;;;;;;;10.65;8.30;;;24.10;59.00;;;;;;5046366;28;20209;-83
2021/07/19 00:55:54;;;;;;;10.18;8.63;;;24.00;58.90;;;;;;5097236;28;20612;-83
2021/07/19 00:58:20;;;;;;;9.93;7.90;;;24.00;59.00;;;;;;5080148;28;20499;-84
2021/07/19 01:00:51;;;;;;;9.38;7.93;;;24.00;58.90;;;;;;5096726;28;20270;-85
2021/07/19 01:03:21;;;;;;;10.30;8.32;;;24.00;59.00;;;;;;5096848;28;20157;-84
2021/07/19 01:05:47;;;;;;;9.63;8.13;;;24.00;59.00;;;;;;5080063;28;20222;-83
2021/07/19 01:08:14;;;;;;;9.98;8.40;;;24.00;59.00;;;;;;5096750;28;20512;-84
2021/07/19 01:10:40;;;;;;;10.13;8.52;;;24.00;59.00;;;;;;5080137;28;20175;-83
2021/07/19 01:13:06;;;;;;;10.60;8.20;;;24.00;59.10;;;;;;5113780;28;20213;-84
2021/07/19 01:15:36;;;;;;;10.25;8.35;;;24.00;59.10;;;;;;5096935;28;20157;-84
2021/07/19 01:18:03;;;;;;;9.90;8.10;;;24.00;59.10;;;;;;5096806;28;20670;-86
2021/07/19 01:20:49;;;;;;;9.65;8.25;;;24.00;59.10;;;;;;5079597;28;20545;-83
2021/07/19 01:23:31;;;;;;;10.10;8.13;;;23.90;59.10;;;;;;5096669;28;20604;-84
2021/07/19 01:26:20;;;;;;;10.27;8.48;;;23.90;59.10;;;;;;5080352;28;20157;-83
2021/07/19 01:28:50;;;;;;;10.65;8.65;;;24.00;59.10;;;;;;5096480;28;21075;-82
2021/07/19 01:31:21;;;;;;;10.18;8.30;;;24.00;59.20;;;;;;5096514;28;20203;-82
2021/07/19 01:33:49;;;;;;;9.10;7.65;;;23.90;59.10;;;;;;5096433;28;20187;-85
2021/07/19 01:36:17;;;;;;;10.27;8.48;;;24.00;59.20;;;;;;5096009;28;20145;-82
2021/07/19 01:38:43;;;;;;;10.90;8.70;;;23.90;59.10;;;;;;5079808;28;20173;-82
2021/07/19 01:41:09;;;;;;;9.40;7.95;;;24.00;59.20;;;;;;5096264;28;20187;-83
2021/07/19 01:43:34;;;;;;;9.48;8.00;;;23.90;59.20;;;;;;5079537;28;20167;-84
2021/07/19 01:46:00;;;;;;;10.55;8.27;;;23.90;59.20;;;;;;5079491;28;20528;-82
2021/07/19 01:48:30;;;;;;;10.50;8.52;;;23.90;59.20;;;;;;5096232;28;20757;-83
2021/07/19 01:50:59;;;;;;;10.13;8.38;;;23.90;59.20;;;;;;5078554;28;20715;-83
2021/07/19 01:53:29;;;;;;;8.93;7.70;;;23.90;59.20;;;;;;5096371;28;20149;-85
2021/07/19 01:56:01;;;;;;;9.90;8.23;;;23.90;59.20;;;;;;5095646;27;20191;-82
2021/07/19 01:58:31;;;;;;;10.57;8.43;;;23.90;59.20;;;;;;5030464;28;20192;-82
2021/07/19 02:01:01;;;;;;;9.70;7.95;;;23.90;59.10;;;;;;5078237;28;20307;-85
2021/07/19 02:03:32;;;;;;;9.90;8.15;;;23.90;59.20;;;;;;5061908;28;20244;-82
2021/07/19 02:05:58;;;;;;;10.93;8.35;;;23.90;59.20;;;;;;5078132;28;20230;-82
2021/07/19 02:08:24;;;;;;;10.23;8.50;;;23.90;59.20;;;;;;5095558;28;20180;-82
2021/07/19 02:10:52;;;;;;;10.68;8.75;;;23.90;59.20;;;;;;5095529;28;20171;-84
2021/07/19 02:13:21;;;;;;;10.75;8.40;;;23.90;59.20;;;;;;5078553;28;20255;-85
2021/07/19 02:15:49;;;;;;;9.82;8.05;;;23.90;59.20;;;;;;5096134;28;20161;-85
2021/07/19 02:18:15;;;;;;;10.43;8.50;;;23.90;59.20;;;;;;5112508;28;20192;-83
2021/07/19 02:20:43;;;;;;;9.82;8.02;;;23.90;59.20;;;;;;5095818;28;20152;-83
2021/07/19 02:23:10;;;;;;;10.05;8.20;;;23.90;59.20;;;;;;5095599;28;20164;-84
2021/07/19 02:25:38;;;;;;;11.10;9.13;;;23.90;59.20;;;;;;5095343;28;20287;-82
2021/07/19 02:28:04;;;;;;;9.27;7.78;;;23.90;59.30;;;;;;5095144;28;20153;-82
2021/07/19 02:30:32;;;;;;;9.63;7.97;;;23.90;59.30;;;;;;5079109;28;20164;-83
2021/07/19 02:33:04;;;;;;;8.80;7.82;;;23.80;59.20;;;;;;5094462;28;20263;-83
2021/07/19 02:35:31;;;;;;;9.70;8.18;;;23.90;59.20;;;;;;5061114;28;20172;-82
2021/07/19 02:38:01;;;;;;;10.18;8.73;;;23.80;59.20;;;;;;5079229;28;20180;-83
2021/07/19 02:40:29;;;;;;;9.90;8.23;;;23.80;59.30;;;;;;5045642;28;20734;-82
2021/07/19 02:42:59;;;;;;;9.77;7.65;;;23.90;59.30;;;;;;5077888;28;20176;-84
2021/07/19 02:45:26;;;;;;;9.90;8.45;;;23.90;59.30;;;;;;5078665;27;20263;-82
2021/07/19 02:47:52;;;;;;;10.27;8.07;;;23.90;59.30;;;;;;5095179;28;20153;-84
2021/07/19 02:50:21;;;;;;;8.88;7.50;;;23.80;59.30;;;;;;5095464;28;20242;-84
2021/07/19 02:52:47;;;;;;;10.18;8.15;;;23.90;59.30;;;;;;5095939;28;20159;-82
2021/07/19 02:55:15;;;;;;;9.60;8.00;;;23.80;59.30;;;;;;5079603;28;20168;-84
2021/07/19 02:57:41;;;;;;;9.48;7.97;;;23.80;59.30;;;;;;5079311;28;20576;-83
2021/07/19 03:00:12;;;;;;;10.57;8.30;;;23.80;59.40;;;;;;5112644;28;20311;-82
2021/07/19 03:02:46;;;;;;;9.18;7.80;;;23.80;59.50;;;;;;5078015;28;20550;-84
2021/07/19 03:05:14;;;;;;;9.77;8.48;;;23.80;59.50;;;;;;5062976;28;20544;-82
2021/07/19 03:07:44;;;;;;;9.77;7.82;;;23.80;59.50;;;;;;5062421;28;20181;-82
2021/07/19 03:10:15;;;;;;;10.15;8.05;;;23.80;59.40;;;;;;5045300;28;20266;-85
2021/07/19 03:12:45;;;;;;;9.82;8.07;;;23.80;59.40;;;;;;5078756;28;20185;-82
2021/07/19 03:15:13;;;;;;;10.77;8.45;;;23.80;59.40;;;;;;5062180;28;20172;-83
2021/07/19 03:17:41;;;;;;;10.88;8.60;;;23.80;59.40;;;;;;5079636;28;20180;-83
2021/07/19 03:20:09;;;;;;;9.55;7.93;;;23.80;59.30;;;;;;5079283;28;20185;-84
2021/07/19 03:22:42;;;;;;;9.90;7.90;;;23.80;59.40;;;;;;5080256;28;20235;-82
2021/07/19 03:25:11;;;;;;;10.05;7.88;;;23.80;59.40;;;;;;5080353;28;20180;-82
2021/07/19 03:27:37;;;;;;;10.15;8.07;;;23.80;59.40;;;;;;5062971;28;20177;-82
2021/07/19 03:30:06;;;;;;;10.05;8.50;;;23.90;59.40;;;;;;5097676;28;20196;-82
2021/07/19 03:32:34;;;;;;;10.27;8.10;;;23.80;59.40;;;;;;5081084;28;20180;-82
2021/07/19 03:35:02;;;;;;;9.90;8.40;;;23.80;59.40;;;;;;5063895;28;20202;-83
2021/07/19 03:37:29;;;;;;;11.35;8.60;;;23.80;59.40;;;;;;5046897;28;20185;-82
2021/07/19 03:39:56;;;;;;;10.15;8.15;;;23.80;59.40;;;;;;5080145;28;20215;-85
2021/07/19 03:42:24;;;;;;;9.65;7.63;;;23.80;59.30;;;;;;5080486;28;20211;-81
2021/07/19 03:44:54;;;;;;;9.30;7.90;;;23.80;59.30;;;;;;5081136;28;20259;-83
2021/07/19 03:47:26;;;;;;;9.80;7.93;;;23.80;59.40;;;;;;5067355;28;20311;-83
2021/07/19 03:49:51;;;;;;;9.43;7.43;;;23.80;59.40;;;;;;5067835;28;20735;-83
2021/07/19 03:52:23;;;;;;;11.30;8.90;;;23.80;59.30;;;;;;5102262;28;20259;-83
2021/07/19 03:54:50;;;;;;;10.32;8.32;;;23.80;59.30;;;;;;5083640;28;20188;-83
2021/07/19 03:57:20;;;;;;;9.63;7.82;;;23.80;59.30;;;;;;5084689;28;20604;-83
2021/07/19 03:59:47;;;;;;;9.10;7.68;;;23.80;59.30;;;;;;5050289;28;20231;-81
2021/07/19 04:02:17;;;;;;;9.25;7.70;;;23.80;59.30;;;;;;5084849;28;20630;-82
2021/07/19 04:04:54;;;;;;;9.73;8.18;;;23.70;59.20;;;;;;5067490;28;20267;-82
2021/07/19 04:07:23;;;;;;;9.85;8.02;;;23.80;59.30;;;;;;5085627;28;20188;-82
2021/07/19 04:09:50;;;;;;;9.68;7.97;;;23.80;59.20;;;;;;5068071;28;20250;-81
2021/07/19 04:12:16;;;;;;;8.63;7.38;;;23.90;59.10;;;;;;5102347;28;20163;-82
2021/07/19 04:14:42;;;;;;;9.32;7.40;;;23.80;58.50;;;;;;5104071;28;20145;-81
2021/07/19 04:17:12;;;;;;;8.13;7.13;;;23.90;58.00;;;;;;5087108;28;20175;-83
2021/07/19 04:19:45;;;;;;;8.05;6.80;;;23.80;57.00;;;;;;5086445;28;20184;-82
2021/07/19 04:22:16;;;;;;;7.35;6.40;;;23.80;57.20;;;;;;5070871;28;20181;-81
2021/07/19 04:24:46;;;;;;;7.88;6.45;;;23.70;56.50;;;;;;5069719;28;20185;-82
2021/07/19 04:27:14;;;;;;;8.10;6.70;;;23.70;57.00;;;;;;5103506;27;20185;-84
2021/07/19 04:29:52;;;;;;;7.30;6.32;;;23.60;57.10;;;;;;5104841;28;20181;-82
2021/07/19 04:32:24;;;;;;;9.27;7.28;;;23.70;57.10;;;;;;5085810;28;20188;-81
2021/07/19 04:34:50;;;;;;;7.07;6.18;;;23.80;56.80;;;;;;5052799;28;20183;-81
2021/07/19 04:37:16;;;;;;;7.18;6.18;;;23.80;56.70;;;;;;5086956;28;20546;-82
2021/07/19 04:39:43;;;;;;;7.05;6.05;;;23.80;56.90;;;;;;5104468;28;20234;-81
2021/07/19 04:42:14;;;;;;;8.05;6.82;;;23.90;56.80;;;;;;5086190;28;20218;-81
2021/07/19 04:44:39;;;;;;;8.27;6.60;;;24.00;56.20;;;;;;5102948;28;20188;-81
2021/07/19 04:47:07;;;;;;;8.50;7.05;;;24.00;56.60;;;;;;5103486;28;20152;-82
2021/07/19 04:49:40;;;;;;;7.47;6.15;;;24.00;56.40;;;;;;5103700;28;20188;-82
2021/07/19 04:52:09;;;;;;;7.40;6.35;;;24.00;56.40;;;;;;5103795;28;20151;-83
2021/07/19 04:54:38;;;;;;;7.25;6.45;;;24.00;56.00;;;;;;5102975;28;20500;-82
2021/07/19 04:57:05;;;;;;;7.78;6.43;;;24.00;56.00;;;;;;5102933;28;20149;-82
2021/07/19 04:59:32;;;;;;;7.65;6.45;;;24.00;56.40;;;;;;5086062;28;20289;-81
2021/07/19 05:02:01;;;;;;;8.30;6.22;;;24.00;56.00;;;;;;5086539;28;20169;-82
2021/07/19 05:04:32;;;;;;;7.53;6.30;;;24.10;55.80;;;;;;5085566;28;20189;-81
2021/07/19 05:07:03;;;;;;;7.88;6.38;;;24.20;55.90;;;;;;5069413;28;20643;-84
2021/07/19 05:09:40;;;;;;;7.53;6.45;;;24.10;55.80;;;;;;5085358;28;20212;-84
2021/07/19 05:12:14;;;;;;;7.10;5.85;;;24.10;56.10;;;;;;5085981;28;20184;-81
2021/07/19 05:14:42;;;;;;;6.85;5.70;;;24.10;55.90;;;;;;5102796;28;20188;-81
2021/07/19 05:17:13;;;;;;;7.40;6.13;;;24.10;55.50;;;;;;5085453;28;20176;-81
2021/07/19 05:19:44;;;;;;;8.00;6.82;;;24.20;55.70;;;;;;5069575;28;20188;-82
2021/07/19 05:22:15;;;;;;;7.97;6.80;;;24.10;55.90;;;;;;5086328;27;20188;-82
2021/07/19 05:24:41;;;;;;;8.32;6.68;;;24.30;56.10;;;;;;5069125;28;20173;-82
2021/07/19 05:27:10;;;;;;;6.95;5.82;;;24.10;56.00;;;;;;5086283;28;20191;-82
2021/07/19 05:29:38;;;;;;;7.68;6.45;;;24.10;55.90;;;;;;5069248;28;20246;-82
2021/07/19 05:32:08;;;;;;;7.72;6.45;;;24.10;56.00;;;;;;5052198;28;20181;-81
2021/07/19 05:34:39;;;;;;;8.15;6.53;;;24.10;55.80;;;;;;5067281;28;20177;-81
2021/07/19 05:37:06;;;;;;;8.55;6.72;;;24.20;55.80;;;;;;5101860;28;20177;-83
2021/07/19 05:39:34;;;;;;;7.35;6.47;;;24.10;56.30;;;;;;5051509;28;20181;-83
2021/07/19 05:42:01;;;;;;;7.38;6.28;;;24.10;56.40;;;;;;5084325;28;20275;-82
2021/07/19 05:44:29;;;;;;;7.18;6.18;;;24.10;56.20;;;;;;5084727;28;20203;-81
2021/07/19 05:46:59;;;;;;;6.75;5.78;;;24.10;55.90;;;;;;5051418;28;20181;-83
2021/07/19 05:49:26;;;;;;;7.22;5.85;;;24.10;55.80;;;;;;5051013;28;20231;-84
2021/07/19 05:51:57;;;;;;;7.45;6.35;;;24.20;55.90;;;;;;5067431;28;20253;-82
2021/07/19 05:54:24;;;;;;;6.90;5.78;;;24.20;56.00;;;;;;5067614;28;20180;-81
2021/07/19 05:56:51;;;;;;;7.63;6.50;;;24.10;55.90;;;;;;5067901;28;20230;-82
2021/07/19 05:59:17;;;;;;;7.55;6.10;;;24.10;55.90;;;;;;5083642;28;20344;-82
2021/07/19 06:01:44;;;;;;;7.32;5.97;;;24.10;55.70;;;;;;5103628;28;20153;-81
2021/07/19 06:04:10;;;;;;;7.18;5.75;;;24.20;55.80;;;;;;5051140;28;20201;-81
2021/07/19 06:06:43;;;;;;;6.20;5.20;;;24.20;55.20;;;;;;5101251;28;20173;-81
2021/07/19 06:09:10;;;;;;;7.50;5.97;;;24.30;55.40;;;;;;5067485;28;20216;-81
2021/07/19 06:11:39;;;;;;;8.00;6.40;;;24.30;55.50;;;;;;5083744;28;20176;-84
2021/07/19 06:14:06;;;;;;;6.40;5.55;;;24.30;55.50;;;;;;5067782;28;20181;-84
2021/07/19 06:16:34;;;;;;;7.78;6.03;;;24.30;55.20;;;;;;5085181;28;20496;-82
2021/07/19 06:19:02;;;;;;;7.22;5.85;;;24.30;55.50;;;;;;5084227;28;20188;-81
2021/07/19 06:21:32;;;;;;;7.75;6.28;;;24.30;55.40;;;;;;5066626;28;20189;-81
2021/07/19 06:23:59;;;;;;;6.57;5.80;;;24.30;55.40;;;;;;5068460;28;20196;-81
2021/07/19 06:26:26;;;;;;;7.50;5.68;;;24.20;55.70;;;;;;5100302;28;20241;-81
2021/07/19 06:28:53;;;;;;;7.10;6.35;;;24.30;55.20;;;;;;5082807;28;20215;-79
2021/07/19 06:31:19;;;;;;;6.90;5.95;;;24.30;55.60;;;;;;5049368;28;20198;-81
2021/07/19 06:33:46;;;;;;;7.30;5.97;;;24.20;55.60;;;;;;5102009;28;20232;-82
2021/07/19 06:36:12;;;;;;;8.98;6.10;;;24.10;55.50;;;;;;5082967;28;20181;-82
2021/07/19 06:38:42;;;;;;;7.10;6.05;;;24.10;55.70;;;;;;5100981;28;20172;-81
2021/07/19 06:41:12;;;;;;;7.43;5.65;;;24.30;55.40;;;;;;5052706;28;20183;-82
2021/07/19 06:43:41;;;;;;;7.22;6.07;;;24.20;55.10;;;;;;5053681;28;20185;-81
2021/07/19 06:46:17;;;;;;;6.45;5.65;;;24.30;55.20;;;;;;5069777;28;20184;-82
2021/07/19 06:48:47;;;;;;;7.05;5.72;;;24.30;54.80;;;;;;5069916;28;20204;-82
2021/07/19 06:51:13;;;;;;;7.38;5.82;;;24.40;54.50;;;;;;5069184;28;20203;-83
2021/07/19 06:53:43;;;;;;;7.10;5.82;;;24.40;54.60;;;;;;5086764;28;20200;-82
2021/07/19 06:56:13;;;;;;;7.63;5.85;;;24.40;54.80;;;;;;5087227;28;20181;-82
2021/07/19 06:58:38;;;;;;;6.88;5.45;;;24.30;55.20;;;;;;5038471;28;20207;-80
2021/07/19 07:01:04;;;;;;;7.07;5.95;;;24.20;55.10;;;;;;5106124;28;20148;-80
2021/07/19 07:03:36;;;;;;;6.32;5.65;;;24.10;55.30;;;;;;5089172;28;20161;-81
2021/07/19 07:06:06;;;;;;;6.65;5.82;;;24.10;55.30;;;;;;5087619;28;20192;-80
2021/07/19 07:08:38;;;;;;;6.57;5.43;;;24.00;55.70;;;;;;5055006;28;20212;-80
2021/07/19 07:11:08;;;;;;;7.10;5.95;;;24.00;56.00;;;;;;5070769;28;20177;-81
2021/07/19 07:13:40;;;;;;;6.57;5.55;;;24.00;55.80;;;;;;5088221;28;20181;-80
2021/07/19 07:16:07;;;;;;;6.75;5.30;;;24.00;55.30;;;;;;5104728;28;20306;-80
2021/07/19 07:18:34;;;;;;;8.13;5.82;;;24.00;55.40;;;;;;5122625;28;20164;-81
2021/07/19 07:21:03;;;;;;;7.25;5.85;;;24.10;55.70;;;;;;5107932;28;20216;-81
2021/07/19 07:23:29;;;;;;;8.55;6.40;;;24.00;55.80;;;;;;5091733;28;20176;-80
2021/07/19 07:25:59;;;;;;;8.38;6.03;;;24.00;56.10;;;;;;5093047;28;20172;-80
2021/07/19 07:28:29;;;;;;;7.38;5.25;;;24.00;56.00;;;;;;5091874;28;20207;-80
2021/07/19 07:31:00;;;;;;;6.63;5.53;;;24.00;55.40;;;;;;5074754;28;20377;-81
2021/07/19 07:33:30;;;;;;;6.47;5.30;;;24.10;55.80;;;;;;5057336;28;20179;-81
2021/07/19 07:36:00;;;;;;;6.05;5.38;;;24.00;55.40;;;;;;5108283;27;20238;-80
2021/07/19 07:38:31;;;;;;;6.45;5.20;;;24.00;55.80;;;;;;5075280;28;20184;-81
2021/07/19 07:41:01;;;;;;;5.75;5.00;;;24.00;55.10;;;;;;5107992;28;20181;-81
2021/07/19 07:43:27;;;;;;;5.93;4.97;;;24.10;54.60;;;;;;5057447;28;20185;-81
2021/07/19 07:45:55;;;;;;;7.00;5.78;;;24.00;55.20;;;;;;5109525;28;20231;-81
2021/07/19 07:48:23;;;;;;;7.30;5.75;;;24.10;55.60;;;;;;5057914;28;20196;-80
2021/07/19 07:50:50;;;;;;;6.28;5.28;;;24.00;55.50;;;;;;5091983;28;20275;-81
2021/07/19 07:53:20;;;;;;;6.85;5.85;;;24.00;55.50;;;;;;5073290;28;20191;-81
2021/07/19 07:55:48;;;;;;;7.53;5.68;;;24.00;55.80;;;;;;5074502;28;20184;-81
2021/07/19 07:58:15;;;;;;;6.40;5.10;;;24.00;55.50;;;;;;5074501;28;20180;-81
2021/07/19 08:00:44;;;;;;;6.40;5.15;;;24.00;55.80;;;;;;5073986;28;20220;-81
2021/07/19 08:03:12;;;;;;;6.65;5.57;;;24.00;54.90;;;;;;5126194;27;20187;-81
2021/07/19 08:05:42;;;;;;;5.70;4.93;;;24.00;55.70;;;;;;5057534;28;20252;-81
2021/07/19 08:08:12;;;;;;;6.30;5.20;;;24.00;55.40;;;;;;5091047;28;20184;-81
2021/07/19 08:10:39;;;;;;;6.80;5.63;;;24.00;55.10;;;;;;5074192;28;20200;-81
2021/07/19 08:13:10;;;;;;;5.90;5.13;;;24.10;55.50;;;;;;5074082;28;20172;-81
2021/07/19 08:15:37;;;;;;;6.15;5.03;;;24.00;55.70;;;;;;5040732;28;20192;-81
2021/07/19 08:18:04;;;;;;;6.38;4.88;;;24.00;55.60;;;;;;5041383;28;20173;-80
2021/07/19 08:20:31;;;;;;;7.07;5.53;;;24.00;55.20;;;;;;5107681;28;20157;-82
2021/07/19 08:22:58;;;;;;;6.75;5.45;;;24.00;55.20;;;;;;5090481;28;20600;-80
2021/07/19 08:25:30;;;;;;;5.97;5.30;;;24.10;54.90;;;;;;5074456;28;20180;-80
2021/07/19 08:27:57;;;;;;;5.60;4.50;;;24.00;54.70;;;;;;5091137;28;20252;-81
2021/07/19 08:30:29;;;;;;;7.05;5.05;;;24.00;54.00;;;;;;5108312;28;20192;-80
2021/07/19 08:33:01;;;;;;;5.80;5.20;;;24.10;54.80;;;;;;5088549;28;20177;-80
2021/07/19 08:35:34;;;;;;;7.57;5.05;;;24.10;53.70;;;;;;5107672;28;20180;-81
2021/07/19 08:38:01;;;;;;;5.80;4.88;;;24.20;54.80;;;;;;5091087;28;20192;-81
2021/07/19 08:40:27;;;;;;;5.63;4.80;;;24.00;54.60;;;;;;5109605;28;20157;-81
2021/07/19 08:42:53;;;;;;;5.97;4.85;;;24.10;54.10;;;;;;5108039;28;20160;-81
2021/07/19 08:45:19;;;;;;;5.78;4.88;;;24.10;54.10;;;;;;5108397;28;20234;-81
2021/07/19 08:47:48;;;;;;;5.45;4.53;;;24.20;54.60;;;;;;5090802;28;20568;-81
2021/07/19 08:50:21;;;;;;;6.00;4.63;;;24.10;54.70;;;;;;5090718;28;20184;-81
2021/07/19 08:52:53;;;;;;;5.93;5.32;;;24.10;54.10;;;;;;5105266;28;20739;-83
2021/07/19 08:55:24;;;;;;;6.10;5.10;;;24.10;54.70;;;;;;5067359;28;20177;-83
2021/07/19 08:57:51;;;;;;;5.95;4.65;;;24.10;55.00;;;;;;5083831;28;20192;-83
2021/07/19 09:00:23;;;;;;;6.05;4.70;;;24.10;55.00;;;;;;5083044;28;20227;-83
2021/07/19 09:02:50;;;;;;;6.47;5.05;;;24.00;55.10;;;;;;5100423;28;20176;-83
2021/07/19 09:05:18;;;;;;;5.75;5.05;;;24.00;54.90;;;;;;5067132;28;20185;-83
2021/07/19 09:07:45;;;;;;;6.88;4.80;;;24.00;55.00;;;;;;5084498;28;20179;-85
2021/07/19 09:10:11;;;;;;;5.30;4.60;;;24.10;54.50;;;;;;5084242;28;20216;-83
2021/07/19 09:12:44;;;;;;;5.30;4.32;;;24.10;53.60;;;;;;5085952;28;20203;-83
2021/07/19 09:15:13;;;;;;;4.55;4.13;;;24.10;52.70;;;;;;5102875;28;20181;-83
2021/07/19 09:17:40;;;;;;;4.70;3.75;;;24.10;52.60;;;;;;5084828;28;20185;-83
2021/07/19 09:20:11;;;;;;;5.30;4.55;;;24.10;51.60;;;;;;5102318;28;20663;-83
2021/07/19 09:22:37;;;;;;;4.82;4.18;;;24.10;52.60;;;;;;5101510;28;20160;-84
2021/07/19 09:25:16;;;;;;;4.72;3.92;;;24.00;51.40;;;;;;5102191;28;20628;-83
2021/07/19 09:28:04;;;;;;;4.65;3.70;;;24.00;51.00;;;;;;5119203;28;20149;-83
2021/07/19 09:30:38;;;;;;;4.38;3.80;;;24.00;50.40;;;;;;5119809;27;20277;-83
2021/07/19 09:33:07;;;;;;;4.47;3.42;;;23.90;50.60;;;;;;5084719;28;20234;-84
2021/07/19 09:35:36;;;;;;;4.25;3.50;;;23.90;50.00;;;;;;5085383;28;20172;-83
2021/07/19 09:38:05;;;;;;;4.78;3.70;;;23.90;49.50;;;;;;5085555;28;20199;-83
2021/07/19 09:40:37;;;;;;;4.60;4.03;;;23.90;49.90;;;;;;5084720;28;20157;-83
2021/07/19 09:43:15;;;;;;;4.00;3.60;;;23.90;50.10;;;;;;5049738;28;20184;-83
2021/07/19 09:45:50;;;;;;;4.20;3.22;;;23.90;48.90;;;;;;5117172;28;20156;-83
2021/07/19 09:48:24;;;;;;;4.88;3.55;;;23.90;50.00;;;;;;5083710;28;20176;-83
2021/07/19 09:50:52;;;;;;;3.78;3.38;;;23.90;48.70;;;;;;5083438;28;20180;-83
2021/07/19 09:53:38;;;;;;;3.80;3.40;;;23.80;48.30;;;;;;5083782;28;20183;-83
2021/07/19 09:56:13;;;;;;;3.20;2.90;;;23.80;48.10;;;;;;5101733;28;20149;-84
2021/07/19 09:58:40;;;;;;;3.95;3.05;;;23.70;47.80;;;;;;5100697;28;20168;-83
2021/07/19 10:01:10;;;;;;;3.30;3.00;;;23.70;47.80;;;;;;5100406;28;20163;-83
2021/07/19 10:03:39;;;;;;;3.65;3.17;;;23.70;47.70;;;;;;5082087;28;20180;-84
2021/07/19 10:06:06;;;;;;;3.05;2.75;;;23.70;48.00;;;;;;5083130;28;20176;-83
2021/07/19 10:08:38;;;;;;;3.38;2.90;;;23.80;47.90;;;;;;5083754;28;20169;-85
2021/07/19 10:11:18;;;;;;;3.78;3.38;;;23.80;47.30;;;;;;5099407;28;20187;-83
2021/07/19 10:13:49;;;;;;;2.95;2.65;;;23.80;48.00;;;;;;5083182;27;20263;-83
2021/07/19 10:16:19;;;;;;;3.42;2.78;;;23.80;47.10;;;;;;5065414;28;20199;-85
2021/07/19 10:18:49;;;;;;;3.40;2.92;;;23.70;47.20;;;;;;5082513;28;20191;-85
2021/07/19 10:21:18;;;;;;;3.90;2.92;;;23.60;47.70;;;;;;5100248;28;20187;-84
2021/07/19 10:23:52;;;;;;;3.75;2.85;;;23.60;47.60;;;;;;5099635;28;20639;-84
2021/07/19 10:26:23;;;;;;;3.35;2.80;;;23.60;46.90;;;;;;5051003;28;20554;-85
2021/07/19 10:28:51;;;;;;;3.10;2.80;;;23.70;46.70;;;;;;5066576;28;20208;-84
2021/07/19 10:31:20;;;;;;;3.55;2.80;;;23.70;46.60;;;;;;5099866;27;20184;-83
2021/07/19 10:33:49;;;;;;;3.88;2.70;;;23.60;46.90;;;;;;5083185;28;20273;-83
2021/07/19 10:36:23;;;;;;;3.67;3.00;;;23.60;46.90;;;;;;5049211;28;20271;-83
2021/07/19 10:38:50;;;;;;;3.08;2.70;;;23.60;46.60;;;;;;5082208;28;20159;-83
2021/07/19 10:41:20;;;;;;;3.15;2.85;;;23.70;46.70;;;;;;5098677;28;20152;-83
2021/07/19 10:43:46;;;;;;;3.05;2.70;;;23.60;46.40;;;;;;5082695;28;20165;-83
2021/07/19 10:46:12;;;;;;;3.00;2.60;;;23.60;46.20;;;;;;5081738;28;20627;-85
2021/07/19 10:48:40;;;;;;;3.00;2.70;;;23.60;46.00;;;;;;5080555;28;20284;-84
2021/07/19 10:51:20;;;;;;;3.35;2.97;;;23.70;45.90;;;;;;5081778;28;20225;-83
2021/07/19 10:53:47;;;;;;;3.17;2.75;;;23.60;46.10;;;;;;5081601;28;20172;-83
2021/07/19 10:56:28;;;;;;;3.30;2.88;;;23.60;45.90;;;;;;5080990;28;20179;-85
2021/07/19 10:58:56;;;;;;;3.35;2.63;;;23.60;45.80;;;;;;5084212;28;20521;-85
2021/07/19 11:01:24;;;;;;;3.15;2.78;;;23.60;46.00;;;;;;5082700;28;20271;-85
2021/07/19 11:03:51;;;;;;;2.88;2.60;;;23.50;45.90;;;;;;5116355;28;20161;-83
2021/07/19 11:06:36;;;;;;;3.33;2.80;;;23.50;45.70;;;;;;5081617;28;20153;-83
2021/07/19 11:09:09;;;;;;;3.33;2.75;;;23.60;45.70;;;;;;5037868;28;20212;-84
2021/07/19 11:11:42;;;;;;;3.45;2.53;;;23.60;45.30;;;;;;5063938;28;20204;-85
2021/07/19 11:14:22;;;;;;;3.58;2.75;;;23.60;45.50;;;;;;5064783;28;20176;-84
2021/07/19 11:16:52;;;;;;;2.50;2.25;;;23.60;45.20;;;;;;5063314;28;20646;-84
2021/07/19 11:19:29;;;;;;;2.17;1.98;;;23.60;45.00;;;;;;5082393;28;20173;-83
2021/07/19 11:22:08;;;;;;;3.05;2.72;;;23.60;44.70;;;;;;5105452;28;20141;-81
2021/07/19 11:24:51;;;;;;;2.42;2.15;;;23.50;44.50;;;;;;5071883;28;20218;-82
2021/07/19 11:27:29;;;;;;;2.80;2.40;;;23.70;44.60;;;;;;5088093;28;20169;-82
2021/07/19 11:30:01;;;;;;;2.65;2.40;;;23.70;44.50;;;;;;5105193;28;20188;-81
2021/07/19 11:32:30;;;;;;;3.05;2.65;;;23.70;44.50;;;;;;5055011;28;20283;-82
2021/07/19 11:35:17;;;;;;;3.83;2.80;;;23.60;44.50;;;;;;5054611;28;20220;-81
2021/07/19 11:37:50;;;;;;;2.60;2.40;;;23.60;44.50;;;;;;5104002;28;20643;-81
2021/07/19 11:40:30;;;;;;;2.50;2.20;;;23.70;44.40;;;;;;5087969;28;20179;-81
2021/07/19 11:43:10;;;;;;;3.55;2.40;;;23.60;44.40;;;;;;5080706;28;20636;-82
2021/07/19 11:45:42;;;;;;;3.28;2.50;;;23.70;44.30;;;;;;5064007;28;20192;-82
2021/07/19 11:48:12;;;;;;;2.55;2.33;;;23.60;44.20;;;;;;5030637;28;20197;-81
2021/07/19 11:50:40;;;;;;;2.60;2.40;;;23.60;44.20;;;;;;5062918;28;20213;-82
2021/07/19 11:53:09;;;;;;;3.13;2.30;;;23.60;44.10;;;;;;5030724;28;20193;-81
2021/07/19 11:55:35;;;;;;;4.45;2.50;;;23.60;44.10;;;;;;5046610;28;20305;-81
2021/07/19 11:58:03;;;;;;;2.40;2.20;;;23.60;44.10;;;;;;5046577;28;20178;-81
2021/07/19 12:00:36;;;;;;;2.95;2.35;;;23.60;43.90;;;;;;5047077;28;20260;-81
2021/07/19 12:03:06;;;;;;;2.50;2.30;;;23.60;43.90;;;;;;5047707;28;20214;-81
2021/07/19 12:05:37;;;;;;;2.20;2.00;;;23.60;43.90;;;;;;5080007;28;20159;-81
2021/07/19 12:08:09;;;;;;;2.50;2.30;;;23.70;43.90;;;;;;5048621;28;20212;-82
2021/07/19 12:10:39;;;;;;;2.72;2.42;;;23.60;43.90;;;;;;5033864;28;20352;-81
2021/07/19 12:13:14;;;;;;;3.40;2.42;;;23.60;43.80;;;;;;5056965;28;20185;-82
2021/07/19 12:15:52;;;;;;;2.40;2.00;;;23.60;44.20;;;;;;5075733;28;20191;-82
2021/07/19 12:18:43;;;;;;;2.58;2.38;;;23.60;43.90;;;;;;5092216;28;20172;-82
2021/07/19 12:21:11;;;;;;;3.20;2.20;;;23.60;43.90;;;;;;5092642;28;20696;-81
2021/07/19 12:23:41;;;;;;;2.55;2.35;;;23.60;43.60;;;;;;5108196;28;20145;-82
2021/07/19 12:26:12;;;;;;;2.50;2.30;;;23.50;43.70;;;;;;5057218;28;20264;-81
2021/07/19 12:28:51;;;;;;;2.75;2.33;;;23.50;43.60;;;;;;5090397;28;20185;-81
2021/07/19 12:31:44;;;;;;;2.80;2.45;;;23.60;43.60;;;;;;5060276;28;20210;-81
2021/07/19 12:34:21;;;;;;;2.30;2.10;;;23.60;43.50;;;;;;5080108;28;20257;-82
2021/07/19 12:36:52;;;;;;;2.90;2.50;;;23.60;43.40;;;;;;5040929;28;20179;-82
2021/07/19 12:39:27;;;;;;;2.40;2.20;;;23.50;43.40;;;;;;5057767;28;20195;-81
2021/07/19 12:41:55;;;;;;;2.60;2.40;;;23.60;43.50;;;;;;5074057;28;20627;-81
2021/07/19 12:44:25;;;;;;;2.80;2.55;;;23.50;43.50;;;;;;5107674;28;20155;-81
2021/07/19 12:46:52;;;;;;;2.92;2.30;;;23.50;43.60;;;;;;5091636;28;20165;-80
2021/07/19 12:49:28;;;;;;;2.88;2.60;;;23.50;43.60;;;;;;5107443;28;20380;-80
2021/07/19 12:51:57;;;;;;;3.40;2.63;;;23.50;43.80;;;;;;5107480;28;20182;-80
2021/07/19 12:54:23;;;;;;;2.92;2.50;;;23.50;43.90;;;;;;5108666;28;20157;-79
2021/07/19 12:56:50;;;;;;;3.30;2.70;;;23.60;43.90;;;;;;5107522;28;20155;-82
2021/07/19 12:59:15;;;;;;;2.55;2.30;;;23.50;44.60;;;;;;5089781;28;20209;-83